Aeroporto :







RITROVATECI SU...

 
LOGIN :

Iscrizione | Disclaimer

   EN    FR    IT 

 









Sommario :    VFR   VFR Marginale   IFR   IFR Intensivo   IFR Molto Intensivo
Visibilità : 
Base nubi : 
>= 8 km
>= 3000ft
5 / 8 km
1000 / 3000 ft
1500m / 5 km
500 / 1000 ft
800 / 1500m
200 / 500 ft
< 800m
< 200 ft
Simboli :   Temporali  Nebbia  Neve Forte  Precipitazioni Forti  Vento > 20 kt






- Altitudine del aeroporto : 124 ft
- Codice IATA : YGV


CYGV - Havre St Pierre

ULTIMO METAR :
  • 240500Z AUTO 06009KT 9SM BKN050 M05/M06 A3005 RMK SLP179

METARs OBSOLETI :
  • 240430Z AUTO 06009KT 9SM SCT002 OVC050 M04/M04 A3004 RMK SLP176
  • 240421Z AUTO 05007KT 2SM BR BKN002 OVC050 M03/M04 A3004 RMK SLP176
  • 240412Z AUTO 04005KT 1SM BR VV002 M03/M04 A3004 RMK SLP175
  • 240402Z AUTO 05004KT 1/2SM FZFG VV002 M03/M04 A3004 RMK SLP175
  • 240343Z AUTO 06004KT 3/8SM SN VV003 M03/M04 A3003 RMK SLP174
  • 240331Z AUTO 05003KT 040V170 1/4SM FZFG VV003 M04/M04 A3003 RMK SLP174
  • 240309Z AUTO VRB02KT 1/4SM FZFG VV003 M04/M04 A3003 RMK SLP173
  • 240300Z AUTO VRB02KT 1/4SM FZFG VV002 M04/M04 A3003 RMK SLP174

TAF TAF CYGV
Valido dal 24 a 02 ore il 24 a 14 ore UTC


240138Z 2402/2414 VRB03KT 1/4SM FZFG VV002
TEMPO 2402/2406 6SM BR SCT002 OVC040
FM240600 07010KT 5SM -SN BKN012
TEMPO 2406/2412 P6SM NSW BKN025
PROB30 2406/2412 2SM -FZDZ BR BKN008
FM241200 08012G22KT 5SM -SN OVC012
PROB30 2412/2414 2SM -FZDZ BR OVC008 RMK FCST BASED ON AUTO OBS. NXT FCST BY 240800Z



MetMap, La meteo Aeronautica in un colpo d'occhio ! - Copyright ORBIFLY Dicembre 2007 - Disclaimer

ORBIFLY MET'MAP TEAM :

Programmazione e sviluppo : Alexandra Zaïnal
Concezione : Baudouin d'Aumeries
Aiuto per la programmazione : Marc-Olivier Méhu
Supporto tecnico e logistico : Manuel Goepfert
Aiuto per la traduzione : Arnaldo La Scala

Contatto : metmap@orbifly.com




FONTI E CREDITI :

   NOAA